Time;durP1;ratioP1;P1;durP2;ratioP2;P2;SDS_P1;SDS_P2;PMS_P1;PMS_P2;Temp;Humidity;BMP_temperature;BMP_pressure;BME280_temperature;BME280_humidity;BME280_pressure;Samples;Min_cycle;Max_cycle;Signal;HPM_P1;HPM_P2
2022/09/19 00:00:41;;;;;;;8.05;7.07;;;;;;;14.96;100.00;96943.16;4969870;28;20101;-50
2022/09/19 00:03:08;;;;;;;7.60;6.80;;;;;;;14.96;100.00;96937.94;4951970;28;20034;-54
2022/09/19 00:05:38;;;;;;;8.25;6.53;;;;;;;14.97;100.00;96927.31;4953989;28;20043;-52
2022/09/19 00:08:04;;;;;;;7.35;6.63;;;;;;;14.74;100.00;96879.84;4952863;28;20083;-48
2022/09/19 00:10:30;;;;;;;8.32;6.45;;;;;;;15.00;100.00;96923.59;4970472;28;20070;-50
2022/09/19 00:12:56;;;;;;;7.43;6.07;;;;;;;14.83;100.00;96896.44;4969726;28;20038;-49
2022/09/19 00:15:22;;;;;;;6.95;6.20;;;;;;;14.97;100.00;96914.22;4970578;28;20045;-49
2022/09/19 00:17:49;;;;;;;7.40;6.60;;;;;;;14.99;100.00;96909.69;4951771;28;20047;-52
2022/09/19 00:20:16;;;;;;;6.90;6.20;;;;;;;14.99;100.00;96908.84;4969873;28;20102;-52
2022/09/19 00:24:45;;;;;;;7.63;6.10;;;;;;;14.97;100.00;96905.59;4970313;28;20042;-52
2022/09/19 00:25:28;;;;;;;7.97;6.25;;;;;;;14.97;100.00;96910.81;4954391;28;20102;-52
2022/09/19 00:27:54;;;;;;;8.52;6.45;;;;;;;14.96;100.00;96903.94;4970703;28;20069;-49
2022/09/19 00:30:20;;;;;;;7.30;6.43;;;;;;;14.93;100.00;96886.72;4971043;28;20121;-51
2022/09/19 00:32:48;;;;;;;8.93;7.20;;;;;;;15.02;100.00;96887.66;4953292;28;20065;-50
2022/09/19 00:35:15;;;;;;;9.57;6.95;;;;;;;15.03;100.00;96890.09;4952201;28;20086;-50
2022/09/19 00:37:40;;;;;;;10.13;7.30;;;;;;;15.05;100.00;96892.56;4952430;28;20100;-49
2022/09/19 00:40:07;;;;;;;8.10;7.30;;;;;;;14.78;100.00;96841.13;4952536;28;20042;-55
2022/09/19 00:42:34;;;;;;;9.07;7.50;;;;;;;15.05;100.00;96884.72;4968573;28;20138;-49
2022/09/19 00:45:03;;;;;;;11.02;7.85;;;;;;;15.06;100.00;96881.97;4952428;28;20046;-52
2022/09/19 00:47:40;;;;;;;9.10;7.97;;;;;;;15.07;100.00;96873.13;4951419;28;20054;-51
2022/09/19 00:50:11;;;;;;;9.00;7.80;;;;;;;15.07;100.00;96873.13;4969160;28;20133;-49
2022/09/19 00:52:47;;;;;;;9.35;7.85;;;;;;;15.07;100.00;96873.13;4968478;28;20066;-50
2022/09/19 00:55:14;;;;;;;9.65;8.50;;;;;;;15.09;100.00;96870.34;4966817;28;20047;-50
2022/09/19 00:57:49;;;;;;;9.05;8.07;;;;;;;14.90;100.00;96826.88;4958951;28;20497;-52
2022/09/19 01:00:15;;;;;;;9.68;8.38;;;;;;;15.12;100.00;96857.81;4948415;28;20146;-51
2022/09/19 01:02:41;;;;;;;10.35;8.48;;;;;;;14.85;100.00;96808.19;4950564;28;20053;-48
2022/09/19 01:05:07;;;;;;;10.20;8.63;;;;;;;15.14;100.00;96855.03;4968192;28;20528;-55
2022/09/19 01:07:43;;;;;;;10.23;8.57;;;;;;;15.15;100.00;96852.28;4950809;28;20492;-52
2022/09/19 01:10:27;;;;;;;9.55;7.82;;;;;;;15.19;100.00;96848.38;4966231;28;20511;-52
2022/09/19 01:13:11;;;;;;;9.18;8.20;;;;;;;15.21;100.00;96841.22;4937160;28;20133;-51
2022/09/19 01:15:53;;;;;;;9.95;8.32;;;;;;;15.22;100.00;96831.56;4974142;28;20047;-50
2022/09/19 01:18:26;;;;;;;9.32;8.30;;;;;;;15.21;100.00;96829.91;4972892;28;20521;-51
2022/09/19 01:24:19;;;;;;;9.50;8.18;;;;;;;15.20;100.00;96836.94;4973909;28;20105;-48
2022/09/19 01:26:58;;;;;;;15.20;8.18;;;;;;;15.22;100.00;96834.19;4931865;28;20055;-50
2022/09/19 01:29:49;;;;;;;10.00;8.65;;;;;;;15.20;100.00;96847.41;4973596;28;20134;-48
2022/09/19 01:32:19;;;;;;;10.60;8.85;;;;;;;15.19;100.00;96839.69;4974520;28;20038;-55
2022/09/19 01:34:54;;;;;;;9.63;8.63;;;;;;;15.19;100.00;96851.00;4958695;28;20046;-50
2022/09/19 01:37:30;;;;;;;10.25;8.88;;;;;;;15.18;100.00;96845.91;4967528;28;20364;-50
2022/09/19 01:40:03;;;;;;;12.75;9.98;;;;;;;15.02;100.00;96809.97;4958825;28;20043;-50
2022/09/19 01:42:31;;;;;;;9.98;8.98;;;;;;;15.16;100.00;96838.22;4957080;28;20066;-50
2022/09/19 01:44:59;;;;;;;10.70;9.60;;;;;;;15.14;100.00;96842.78;4975378;28;20540;-52
2022/09/19 01:48:12;;;;;;;12.13;9.27;;;;;;;15.14;100.00;96826.25;4981529;28;20482;-53
2022/09/19 01:50:40;;;;;;;11.98;8.95;;;;;;;15.11;100.00;96827.38;4955944;28;20058;-48
2022/09/19 01:53:12;;;;;;;11.38;9.10;;;;;;;15.10;100.00;96833.59;4958596;28;20051;-52
2022/09/19 01:56:07;;;;;;;9.95;8.95;;;;;;;15.12;100.00;96818.56;4936466;28;20108;-50
2022/09/19 01:58:36;;;;;;;13.60;9.15;;;;;;;15.13;100.00;96828.03;4972939;28;20046;-51
2022/09/19 02:01:07;;;;;;;11.35;8.98;;;;;;;15.12;100.00;96810.72;4974214;28;20418;-51
2022/09/19 02:03:46;;;;;;;10.65;8.88;;;;;;;15.14;100.00;96813.16;4974124;28;20137;-54
2022/09/19 02:06:29;;;;;;;10.93;8.25;;;;;;;15.15;100.00;96806.97;4973963;28;20039;-53
2022/09/19 02:09:00;;;;;;;10.38;8.30;;;;;;;15.15;100.00;96804.34;4957429;28;20553;-53
2022/09/19 02:11:46;;;;;;;10.75;8.65;;;;;;;15.17;100.00;96798.00;4957475;28;20506;-51
2022/09/19 02:14:17;;;;;;;9.43;7.65;;;;;;;15.19;100.00;96798.66;4973996;28;20046;-52
2022/09/19 02:16:58;;;;;;;10.98;7.82;;;;;;;15.19;100.00;96803.88;4956440;28;20054;-54
2022/09/19 02:19:32;;;;;;;10.45;8.00;;;;;;;15.20;100.00;96794.25;4958455;28;20054;-52
2022/09/19 02:22:23;;;;;;;8.80;7.90;;;;;;;15.19;100.00;96777.72;4958912;28;20042;-55
2022/09/19 02:24:49;;;;;;;11.43;8.07;;;;;;;15.06;100.00;96760.78;4943440;28;20050;-50
2022/09/19 02:27:20;;;;;;;11.48;7.97;;;;;;;15.20;100.00;96779.38;4971265;28;20526;-52
2022/09/19 02:29:54;;;;;;;10.63;8.38;;;;;;;15.22;100.00;96787.09;4955274;28;20074;-50
2022/09/19 02:32:21;;;;;;;10.43;7.47;;;;;;;15.24;100.00;96785.94;4954508;28;20094;-49
2022/09/19 02:34:52;;;;;;;10.02;7.88;;;;;;;15.14;100.00;96781.78;4971681;28;20418;-48
2022/09/19 02:37:35;;;;;;;12.38;8.50;;;;;;;15.25;100.00;96784.97;4955319;28;20051;-50
2022/09/19 02:40:08;;;;;;;11.70;8.20;;;;;;;15.25;100.00;96778.91;4970912;28;20078;-50
2022/09/19 02:43:06;;;;;;;11.27;8.65;;;;;;;15.27;100.00;96782.22;4954722;28;20573;-53
2022/09/19 02:45:38;;;;;;;12.60;9.50;;;;;;;15.14;100.00;96760.84;4919602;28;20055;-53
2022/09/19 02:48:44;;;;;;;12.65;8.93;;;;;;;15.14;100.00;96750.38;4954922;28;20065;-50
2022/09/19 02:51:30;;;;;;;11.63;8.70;;;;;;;15.27;100.00;96779.59;4964303;28;20425;-53
2022/09/19 02:54:03;;;;;;;11.75;8.40;;;;;;;15.25;100.00;96777.13;4948640;28;20042;-51
2022/09/19 02:56:33;;;;;;;11.27;8.40;;;;;;;15.26;100.00;96777.94;4971217;28;20077;-53
2022/09/19 02:59:05;;;;;;;10.60;7.88;;;;;;;15.20;100.00;96768.91;4970694;28;20097;-52
2022/09/19 03:01:50;;;;;;;10.57;7.53;;;;;;;15.11;100.00;96761.97;4954161;28;20047;-50
2022/09/19 03:04:19;;;;;;;10.23;8.20;;;;;;;15.06;100.00;96760.78;4937314;28;20047;-46
2022/09/19 03:07:13;;;;;;;10.32;7.97;;;;;;;14.96;100.00;96760.06;4953440;28;20137;-50
2022/09/19 03:09:52;;;;;;;11.82;8.38;;;;;;;14.87;100.00;96758.31;4970147;28;20050;-49
2022/09/19 03:12:37;;;;;;;10.07;7.88;;;;;;;14.79;100.00;96765.16;4923660;28;20073;-50
2022/09/19 03:15:06;;;;;;;9.02;6.80;;;;;;;14.75;100.00;96755.97;4955037;28;20070;-46
2022/09/19 03:17:39;;;;;;;9.60;7.07;;;;;;;14.71;100.00;96761.63;4937608;28;20133;-51
2022/09/19 03:20:06;;;;;;;11.27;6.97;;;;;;;14.70;100.00;96762.63;4948503;28;20540;-50
2022/09/19 03:22:40;;;;;;;11.52;7.88;;;;;;;14.44;100.00;96712.03;4939171;28;20081;-53
2022/09/19 03:25:08;;;;;;;11.90;7.15;;;;;;;14.67;100.00;96749.81;4968966;28;20149;-52
2022/09/19 03:27:36;;;;;;;11.13;7.70;;;;;;;14.62;100.00;96752.06;4947772;28;20538;-51
2022/09/19 03:30:07;;;;;;;9.23;7.00;;;;;;;14.62;100.00;96754.69;4938920;28;20463;-49
2022/09/19 03:32:35;;;;;;;8.80;7.25;;;;;;;14.61;100.00;96758.25;4969807;28;20046;-53
2022/09/19 03:35:04;;;;;;;10.68;7.28;;;;;;;14.31;100.00;96705.34;4969072;28;20478;-52
2022/09/19 03:37:32;;;;;;;8.75;7.07;;;;;;;14.68;100.00;96752.28;4967822;28;20100;-49
2022/09/19 03:39:58;;;;;;;7.17;6.00;;;;;;;14.75;100.00;96762.97;4954520;28;20592;-48
2022/09/19 03:42:25;;;;;;;7.55;5.22;;;;;;;14.84;100.00;96754.22;4968427;28;20054;-47
2022/09/19 03:44:55;;;;;;;7.20;5.70;;;;;;;14.92;100.00;96749.06;4953980;28;20097;-52
2022/09/19 03:47:21;;;;;;;7.25;5.35;;;;;;;14.78;100.00;96702.53;4957998;28;20054;-53
2022/09/19 03:49:51;;;;;;;7.45;5.97;;;;;;;14.86;100.00;96704.41;4951270;28;20568;-49
2022/09/19 03:52:18;;;;;;;6.85;5.45;;;;;;;15.06;100.00;96738.06;4969446;28;20035;-53
2022/09/19 03:54:44;;;;;;;5.03;4.18;;;;;;;14.84;100.00;96702.75;4970564;28;20050;-52
2022/09/19 03:57:11;;;;;;;6.05;4.22;;;;;;;15.00;100.00;96712.50;4968377;28;20105;-52
2022/09/19 03:59:39;;;;;;;7.53;3.83;;;;;;;15.12;100.00;96734.84;4954368;28;20042;-52
2022/09/19 04:02:06;;;;;;;6.32;4.53;;;;;;;15.16;99.50;96720.47;4969246;28;20047;-52
2022/09/19 04:04:33;;;;;;;4.72;3.92;;;;;;;15.17;98.14;96713.44;4969919;28;20121;-54
2022/09/19 04:06:59;;;;;;;4.60;3.55;;;;;;;15.18;97.65;96715.88;4968795;28;20603;-51
2022/09/19 04:09:26;;;;;;;6.45;3.53;;;;;;;15.21;96.29;96717.41;4953311;28;20707;-54
2022/09/19 04:11:56;;;;;;;6.85;3.30;;;;;;;15.23;94.90;96723.28;4969262;28;20039;-50
2022/09/19 04:14:23;;;;;;;5.50;2.28;;;;;;;15.21;92.76;96736.53;4968476;28;20045;-51
2022/09/19 04:16:49;;;;;;;3.88;2.17;;;;;;;15.04;89.16;96700.75;4952226;28;20411;-50
2022/09/19 04:19:16;;;;;;;4.85;2.20;;;;;;;15.10;88.27;96709.78;4953492;28;20130;-54
2022/09/19 04:21:50;;;;;;;2.65;1.42;;;;;;;15.20;87.13;96755.81;4968151;28;20043;-53
2022/09/19 04:24:29;;;;;;;3.70;1.88;;;;;;;15.08;80.86;96743.13;4968780;28;20067;-50
2022/09/19 04:27:17;;;;;;;1.90;0.63;;;;;;;14.84;72.38;96726.28;4952935;28;20130;-49
2022/09/19 04:29:43;;;;;;;2.42;0.60;;;;;;;14.77;69.05;96768.88;4966446;28;20198;-51
2022/09/19 04:32:09;;;;;;;1.70;0.60;;;;;;;14.69;66.27;96747.88;4967846;28;20057;-49
2022/09/19 04:34:36;;;;;;;0.65;0.60;;;;;;;14.63;65.39;96835.59;4953098;28;20129;-51
2022/09/19 04:37:03;;;;;;;2.97;0.40;;;;;;;14.59;63.68;96734.91;4936070;28;20518;-50
2022/09/19 04:39:31;;;;;;;3.22;0.55;;;;;;;14.55;63.26;96753.66;4967979;28;20050;-50
2022/09/19 04:41:58;;;;;;;1.23;0.60;;;;;;;14.59;63.53;96747.97;4964108;28;20548;-52
2022/09/19 04:44:28;;;;;;;0.90;0.50;;;;;;;14.52;62.77;96738.25;4965156;28;20561;-52
2022/09/19 04:47:17;;;;;;;1.15;0.60;;;;;;;14.49;62.55;96775.97;4967073;28;20136;-55
2022/09/19 04:49:44;;;;;;;1.52;0.47;;;;;;;14.34;62.46;96741.63;4968875;28;20518;-55
2022/09/19 04:52:13;;;;;;;2.13;0.60;;;;;;;14.30;62.82;96748.13;4968767;28;20077;-49
2022/09/19 04:54:45;;;;;;;1.60;0.60;;;;;;;14.31;63.42;96744.53;4968053;28;20042;-48
2022/09/19 04:57:11;;;;;;;0.85;0.50;;;;;;;14.29;62.99;96741.25;4958175;28;20585;-49
2022/09/19 04:59:39;;;;;;;1.00;0.60;;;;;;;14.36;62.99;96763.25;4968764;28;20039;-52
2022/09/19 05:02:08;;;;;;;3.72;0.70;;;;;;;14.36;62.10;96744.97;4969042;28;20045;-50
2022/09/19 05:04:35;;;;;;;1.45;0.50;;;;;;;14.28;62.72;96717.91;4966676;28;20196;-54
2022/09/19 05:07:02;;;;;;;2.42;0.50;;;;;;;14.36;62.65;96739.72;4967881;28;20043;-53
2022/09/19 05:09:28;;;;;;;6.32;0.75;;;;;;;14.37;63.23;96764.06;4967010;28;20133;-54
2022/09/19 05:12:09;;;;;;;1.48;0.77;;;;;;;14.21;63.50;96714.22;4951590;28;20537;-50
2022/09/19 05:14:39;;;;;;;0.52;0.50;;;;;;;14.21;63.57;96703.78;4967733;28;20038;-49
2022/09/19 05:17:06;;;;;;;1.52;0.85;;;;;;;14.39;64.11;96739.41;4964634;28;20058;-54
2022/09/19 05:19:36;;;;;;;0.70;0.70;;;;;;;14.30;64.42;96742.91;4967220;28;20124;-51
2022/09/19 05:22:04;;;;;;;2.83;0.70;;;;;;;14.25;64.73;96760.81;4951775;28;20063;-54
2022/09/19 05:24:30;;;;;;;1.65;0.65;;;;;;;14.07;64.83;96733.03;4950149;28;20042;-54
2022/09/19 05:26:58;;;;;;;0.90;0.65;;;;;;;14.20;65.05;96736.09;4966749;28;20102;-53
2022/09/19 05:29:25;;;;;;;1.67;0.60;;;;;;;14.14;64.86;96765.41;4967552;28;20086;-51
2022/09/19 05:32:01;;;;;;;2.45;0.60;;;;;;;13.93;65.21;96718.66;4950201;28;20092;-52
2022/09/19 05:34:48;;;;;;;3.15;0.80;;;;;;;13.86;65.91;96736.72;4935460;28;20062;-52
2022/09/19 05:37:45;;;;;;;5.82;1.80;;;;;;;13.60;66.26;96701.78;4964475;28;20050;-51
2022/09/19 05:40:30;;;;;;;1.25;0.55;;;;;;;13.64;66.80;96713.59;4958733;28;20043;-51
2022/09/19 05:43:19;;;;;;;2.03;0.50;;;;;;;13.55;66.43;96740.53;4959373;28;20482;-63
2022/09/19 05:45:46;;;;;;;1.63;0.75;;;;;;;13.68;66.58;96743.66;4971333;28;20039;-54
2022/09/19 05:48:14;;;;;;;1.92;0.52;;;;;;;13.66;66.70;96744.78;4930499;28;20044;-49
2022/09/19 05:50:43;;;;;;;1.48;0.70;;;;;;;13.62;66.95;96780.75;4978996;28;20458;-52
2022/09/19 05:56:08;;;;;;;0.73;0.65;;;;;;;13.61;67.28;96760.84;4970353;28;20381;-54
2022/09/19 05:58:45;;;;;;;0.95;0.68;;;;;;;13.58;67.70;96748.91;4957184;28;20042;-55
2022/09/19 06:01:13;;;;;;;1.23;0.70;;;;;;;13.69;67.61;96763.56;4975429;28;20425;-50
2022/09/19 06:03:39;;;;;;;3.50;0.60;;;;;;;13.40;66.96;96719.28;4945026;28;20039;-55
2022/09/19 06:06:11;;;;;;;1.83;1.15;;;;;;;13.73;67.10;96764.09;4984089;28;20042;-54
2022/09/19 06:08:38;;;;;;;0.95;0.60;;;;;;;13.85;67.01;96792.50;4953192;28;20551;-53
2022/09/19 06:11:06;;;;;;;2.10;0.68;;;;;;;14.56;64.65;96739.59;4962295;28;20070;-52
2022/09/19 06:16:20;;;;;;;3.83;0.70;;;;;;;14.95;62.20;96756.63;4953107;28;20055;-53
2022/09/19 06:19:06;;;;;;;4.13;0.70;;;;;;;14.64;63.47;96757.97;4970015;28;20450;-52
2022/09/19 06:21:32;;;;;;;1.15;0.60;;;;;;;14.50;63.84;96756.69;4969471;28;20201;-55
2022/09/19 06:23:58;;;;;;;1.35;0.65;;;;;;;14.49;63.71;96747.22;4955236;28;20136;-54
2022/09/19 06:26:24;;;;;;;1.83;0.50;;;;;;;14.40;64.12;96750.69;4954980;28;20053;-57
2022/09/19 06:28:51;;;;;;;0.95;0.60;;;;;;;14.17;64.38;96725.94;4970786;28;20045;-52
2022/09/19 06:31:18;;;;;;;1.70;0.60;;;;;;;14.47;63.83;96759.59;4970392;28;20498;-56
2022/09/19 06:33:50;;;;;;;0.68;0.50;;;;;;;14.31;63.61;96739.31;4954211;28;20423;-56
2022/09/19 06:36:20;;;;;;;0.77;0.45;;;;;;;14.18;63.42;96751.94;4954702;28;20050;-52
2022/09/19 06:38:46;;;;;;;0.70;0.47;;;;;;;14.08;63.66;96760.78;4965989;28;20042;-52
2022/09/19 06:41:30;;;;;;;1.27;0.60;;;;;;;13.88;64.34;96760.03;4970120;28;20109;-52
2022/09/19 06:44:08;;;;;;;0.98;0.40;;;;;;;13.53;66.52;96779.00;4971773;28;20367;-47
2022/09/19 06:46:59;;;;;;;1.83;0.70;;;;;;;13.20;68.66;96776.88;4956259;28;20059;-53
2022/09/19 06:49:48;;;;;;;3.90;0.85;;;;;;;12.99;71.29;96775.22;4967341;28;20137;-49
2022/09/19 06:52:21;;;;;;;1.65;0.50;;;;;;;12.80;72.89;96788.28;4950543;28;20042;-49
2022/09/19 06:54:48;;;;;;;0.88;0.30;;;;;;;12.60;73.52;96792.66;4954693;28;20093;-44
2022/09/19 06:57:15;;;;;;;0.50;0.47;;;;;;;12.40;75.18;96792.78;4954668;28;20047;-48
2022/09/19 06:59:43;;;;;;;5.97;0.70;;;;;;;12.24;76.07;96793.28;4955093;28;20047;-48
2022/09/19 07:02:09;;;;;;;1.48;0.47;;;;;;;12.20;77.39;96802.31;4968505;28;20094;-50
2022/09/19 07:04:35;;;;;;;0.63;0.50;;;;;;;12.02;78.57;96796.09;4954231;28;20117;-48
2022/09/19 07:07:15;;;;;;;1.65;0.57;;;;;;;11.66;81.27;96794.81;4954382;28;20042;-50
2022/09/19 07:09:52;;;;;;;2.33;0.68;;;;;;;11.38;83.94;96773.72;4954192;28;20046;-50
2022/09/19 07:12:18;;;;;;;1.73;0.50;;;;;;;11.25;86.20;96786.09;4955171;28;20043;-48
2022/09/19 07:14:45;;;;;;;1.30;0.90;;;;;;;11.35;86.60;96805.22;4954159;28;20046;-50
2022/09/19 07:17:15;;;;;;;1.65;0.30;;;;;;;11.31;85.67;96795.16;4920849;28;20129;-49
2022/09/19 07:19:44;;;;;;;1.38;0.70;;;;;;;11.35;84.72;96820.00;4969749;28;20521;-51
2022/09/19 07:22:30;;;;;;;0.70;0.50;;;;;;;11.77;85.74;96820.81;4967314;28;20101;-48
2022/09/19 07:25:22;;;;;;;3.40;0.43;;;;;;;11.74;83.40;96821.88;4970762;28;20057;-54
2022/09/19 07:28:06;;;;;;;0.70;0.40;;;;;;;12.58;80.50;96815.41;4953663;28;20046;-54
2022/09/19 07:30:34;;;;;;;;;;;;;;;12.63;75.95;96808.00;4953182;28;20403;-49
2022/09/19 07:33:03;;;;;;;4.63;0.65;;;;;;;12.76;74.80;96838.22;4937385;28;19917;-51
2022/09/19 07:35:33;;;;;;;0.98;0.20;;;;;;;13.28;70.64;96805.72;4969053;28;20093;-48
2022/09/19 07:38:00;;;;;;;1.83;0.38;;;;;;;13.35;68.62;96809.38;4952128;28;20119;-47
2022/09/19 07:40:46;;;;;;;3.13;0.50;;;;;;;13.09;67.02;96796.91;4970103;28;20047;-51
2022/09/19 07:43:35;;;;;;;2.08;0.38;;;;;;;13.66;65.08;96828.31;4952171;28;20514;-51
2022/09/19 07:46:19;;;;;;;0.52;0.30;;;;;;;13.47;64.03;96813.50;4968433;28;20109;-51
2022/09/19 07:49:05;;;;;;;2.22;0.45;;;;;;;13.51;64.34;96826.13;4958395;28;20529;-49
2022/09/19 07:51:43;;;;;;;2.13;0.40;;;;;;;13.12;63.62;96867.09;4953061;28;20070;-51
2022/09/19 07:54:09;;;;;;;2.72;0.20;;;;;;;12.83;63.85;96866.19;4953018;28;20493;-48
2022/09/19 07:56:35;;;;;;;0.60;0.25;;;;;;;12.71;64.03;96831.63;4953713;28;20101;-48
2022/09/19 07:59:02;;;;;;;0.40;0.25;;;;;;;12.72;64.26;96832.44;4967914;28;20106;-53
2022/09/19 08:01:39;;;;;;;0.13;0.10;;;;;;;12.59;64.20;96827.50;4966614;28;20046;-52
2022/09/19 08:04:08;;;;;;;1.48;0.35;;;;;;;12.53;64.06;96835.00;4952816;28;20141;-54
2022/09/19 08:06:54;;;;;;;0.25;0.25;;;;;;;12.37;64.23;96829.50;4969965;28;20485;-47
2022/09/19 08:09:21;;;;;;;2.55;0.68;;;;;;;12.48;64.38;96863.25;4953227;28;20069;-50
2022/09/19 08:12:06;;;;;;;8.43;0.95;;;;;;;12.45;63.68;96848.72;4953451;28;20050;-57
2022/09/19 08:14:39;;;;;;;0.98;0.30;;;;;;;12.41;63.26;96841.28;4952400;28;20559;-55
2022/09/19 08:17:05;;;;;;;0.73;0.40;;;;;;;12.39;63.64;96849.25;4969357;28;20057;-54
2022/09/19 08:19:31;;;;;;;1.23;0.30;;;;;;;12.35;64.18;96854.88;4937618;28;20533;-47
2022/09/19 08:21:57;;;;;;;0.57;0.30;;;;;;;12.32;64.65;96842.91;4954330;28;20045;-55
2022/09/19 08:24:24;;;;;;;0.70;0.40;;;;;;;12.15;64.62;96848.75;4952561;28;20069;-52
2022/09/19 08:26:58;;;;;;;0.73;0.30;;;;;;;12.23;64.68;96874.97;4952172;28;20042;-49
2022/09/19 08:29:26;;;;;;;0.30;0.30;;;;;;;12.14;65.11;96853.13;4948813;28;20527;-50
2022/09/19 08:31:59;;;;;;;0.73;0.30;;;;;;;12.19;65.60;96856.19;4952377;28;20560;-51
2022/09/19 08:34:25;;;;;;;2.17;0.30;;;;;;;12.14;65.20;96845.31;4920804;28;20047;-48
2022/09/19 08:36:58;;;;;;;5.43;1.02;;;;;;;12.16;65.75;96846.03;4937228;28;20039;-50
2022/09/19 08:39:25;;;;;;;0.60;0.40;;;;;;;11.85;65.45;96847.00;4953034;28;20043;-51
2022/09/19 08:41:54;;;;;;;5.03;0.50;;;;;;;12.07;64.93;96861.63;4921619;28;20046;-54
2022/09/19 08:44:34;;;;;;;2.45;0.40;;;;;;;12.06;65.37;96852.97;4952847;28;20054;-46
2022/09/19 08:47:07;;;;;;;5.60;0.60;;;;;;;12.10;65.99;96832.69;4940595;28;20137;-50
2022/09/19 08:49:38;;;;;;;4.32;0.80;;;;;;;12.11;65.76;96848.19;4936527;28;20062;-53
2022/09/19 08:52:14;;;;;;;0.60;0.43;;;;;;;12.13;65.14;96850.69;4966710;28;20075;-51
2022/09/19 08:54:45;;;;;;;0.85;0.40;;;;;;;12.03;65.23;96839.41;4950270;28;20047;-52
2022/09/19 08:57:39;;;;;;;2.25;0.60;;;;;;;12.22;65.17;96855.91;4941826;28;20097;-53
2022/09/19 09:00:17;;;;;;;0.55;0.40;;;;;;;12.20;64.94;96839.59;4950760;28;20050;-53
2022/09/19 09:03:07;;;;;;;5.55;0.77;;;;;;;12.32;64.95;96856.78;4936478;28;20046;-50
2022/09/19 09:05:44;;;;;;;0.82;0.63;;;;;;;12.34;64.75;96846.22;4936926;28;20078;-47
2022/09/19 09:08:37;;;;;;;1.83;0.35;;;;;;;12.30;63.89;96863.06;4952023;28;20147;-48
2022/09/19 09:11:32;;;;;;;0.85;0.50;;;;;;;12.27;64.05;96851.13;4953684;28;20042;-44
2022/09/19 09:14:23;;;;;;;2.42;0.40;;;;;;;12.23;64.00;96848.94;4968594;28;20050;-44
2022/09/19 09:17:02;;;;;;;1.33;0.40;;;;;;;12.30;64.17;96861.28;4965732;28;20469;-43
2022/09/19 09:19:47;;;;;;;2.53;0.80;;;;;;;12.26;65.06;96918.97;4949164;28;20047;-46
2022/09/19 09:22:28;;;;;;;9.07;0.90;;;;;;;11.89;67.25;96866.59;4963824;28;20043;-48
2022/09/19 09:25:32;;;;;;;3.28;0.40;;;;;;;11.75;68.37;96861.72;4949112;28;20046;-44
2022/09/19 09:28:26;;;;;;;2.40;0.50;;;;;;;11.61;70.58;96867.25;4966099;28;20047;-46
2022/09/19 09:31:26;;;;;;;4.30;0.50;;;;;;;11.11;74.34;96845.41;4961469;28;20043;-45
2022/09/19 09:34:07;;;;;;;1.40;0.47;;;;;;;10.33;80.14;96838.69;4950232;28;20077;-45
2022/09/19 09:36:39;;;;;;;4.20;0.80;;;;;;;10.30;83.98;96872.69;4939476;28;20238;-47
2022/09/19 09:39:13;;;;;;;1.13;0.60;;;;;;;9.97;86.69;96841.50;4937769;28;20574;-46
2022/09/19 09:41:49;;;;;;;4.10;0.80;;;;;;;9.89;91.41;96900.97;4939263;28;20125;-46
2022/09/19 09:44:46;;;;;;;6.25;0.77;;;;;;;9.72;98.20;96881.47;4933234;28;20058;-46
2022/09/19 09:47:21;;;;;;;1.95;0.70;;;;;;;9.69;100.00;96885.13;4953923;28;20133;-48
2022/09/19 09:49:52;;;;;;;1.05;0.65;;;;;;;9.62;100.00;96872.75;4954799;28;20050;-45
2022/09/19 09:52:33;;;;;;;5.28;1.00;;;;;;;9.58;100.00;96892.06;4968415;28;20045;-46
2022/09/19 09:58:00;;;;;;;2.08;1.05;;;;;;;9.70;100.00;96880.75;4970077;28;20097;-46
2022/09/19 10:03:36;;;;;;;0.68;0.60;;;;;;;9.76;100.00;96862.16;4933741;28;20823;-49
2022/09/19 10:06:25;;;;;;;1.60;0.63;;;;;;;10.01;100.00;96866.28;4950051;28;20042;-45
2022/09/19 10:09:08;;;;;;;1.80;0.80;;;;;;;10.10;100.00;96873.38;4952446;28;20430;-46
2022/09/19 10:11:48;;;;;;;0.70;0.40;;;;;;;10.06;100.00;96884.91;4935532;28;20106;-46
2022/09/19 10:14:19;;;;;;;2.13;0.63;;;;;;;10.13;100.00;96889.53;4970503;28;20051;-48
2022/09/19 10:16:48;;;;;;;2.03;0.60;;;;;;;10.15;100.00;96882.44;4939244;28;20053;-50
2022/09/19 10:19:47;;;;;;;2.17;0.68;;;;;;;10.18;98.93;96878.81;4938846;28;20039;-46
2022/09/19 10:22:15;;;;;;;4.82;0.70;;;;;;;9.91;97.72;96842.81;4969938;28;20050;-52
2022/09/19 10:24:59;;;;;;;0.65;0.40;;;;;;;10.12;97.10;96882.69;4954547;28;20158;-46
2022/09/19 10:27:35;;;;;;;1.05;0.60;;;;;;;10.14;97.12;96877.38;4968251;28;20470;-47
2022/09/19 10:30:16;;;;;;;1.90;0.50;;;;;;;10.14;96.34;96887.75;4969929;28;20050;-47
2022/09/19 10:32:45;;;;;;;1.17;0.28;;;;;;;10.08;95.03;96888.22;4962263;28;20077;-45
2022/09/19 10:35:43;;;;;;;2.83;0.50;;;;;;;10.03;95.97;96869.59;4961743;28;20134;-45
2022/09/19 10:38:16;;;;;;;1.42;1.20;;;;;;;10.05;96.89;96881.50;4953116;28;20077;-48
2022/09/19 10:40:58;;;;;;;2.13;1.58;;;;;;;10.08;96.63;96888.22;4971600;28;20046;-45
2022/09/19 10:43:32;;;;;;;2.00;0.82;;;;;;;10.11;96.09;96857.66;4939502;28;20073;-43
2022/09/19 10:46:06;;;;;;;0.93;0.63;;;;;;;10.06;95.69;96849.41;4937719;28;20048;-48
2022/09/19 10:48:38;;;;;;;1.42;0.52;;;;;;;10.18;96.02;96845.06;4954780;28;20038;-44
2022/09/19 10:51:08;;;;;;;0.63;0.47;;;;;;;10.10;96.91;96835.25;4939176;28;20038;-46
2022/09/19 10:53:36;;;;;;;1.95;0.47;;;;;;;10.26;96.55;96847.88;4938764;28;20058;-46
2022/09/19 10:56:07;;;;;;;3.45;0.50;;;;;;;10.05;95.85;96836.53;4954372;28;20047;-43
2022/09/19 10:58:38;;;;;;;0.77;0.50;;;;;;;10.21;96.28;96868.19;4953910;28;20074;-47
2022/09/19 11:01:24;;;;;;;1.48;0.50;;;;;;;10.19;96.88;96865.72;4920455;28;20420;-47
2022/09/19 11:03:58;;;;;;;2.35;0.70;;;;;;;10.20;96.44;96846.59;4948706;28;20156;-45
2022/09/19 11:06:24;;;;;;;1.20;0.55;;;;;;;10.27;97.47;96862.53;4970408;28;20043;-47
2022/09/19 11:08:54;;;;;;;2.10;0.60;;;;;;;10.27;97.58;96857.31;4973280;28;20043;-46
2022/09/19 11:11:48;;;;;;;1.55;0.50;;;;;;;10.19;97.17;96851.91;4970436;28;20039;-47
2022/09/19 11:14:37;;;;;;;2.10;0.43;;;;;;;10.10;97.51;96837.03;4953866;28;20053;-47
2022/09/19 11:17:55;;;;;;;1.83;0.75;;;;;;;10.05;100.00;96875.47;4939367;28;20046;-48
2022/09/19 11:20:39;;;;;;;0.98;0.65;;;;;;;9.93;100.00;96840.94;4969872;28;20535;-47
2022/09/19 11:23:27;;;;;;;0.80;0.60;;;;;;;9.92;100.00;96854.84;4970197;28;20481;-48
2022/09/19 11:26:14;;;;;;;1.73;0.82;;;;;;;9.80;100.00;96850.59;4953923;28;20122;-48
2022/09/19 11:28:51;;;;;;;1.10;0.70;;;;;;;9.80;100.00;96837.63;4954118;28;20449;-50
2022/09/19 11:31:39;;;;;;;5.25;0.90;;;;;;;9.83;100.00;96859.91;4971510;28;20499;-51
2022/09/19 11:34:34;;;;;;;4.95;1.00;;;;;;;9.81;100.00;96836.69;4970120;28;20185;-49
2022/09/19 11:37:14;;;;;;;2.47;0.70;;;;;;;9.87;100.00;96845.75;4965529;28;20050;-53
2022/09/19 11:40:01;;;;;;;2.03;0.63;;;;;;;9.88;100.00;96837.03;4953871;28;20511;-51
2022/09/19 11:42:33;;;;;;;2.20;0.50;;;;;;;9.92;100.00;96831.50;4952511;28;20404;-46
2022/09/19 11:45:19;;;;;;;2.00;0.57;;;;;;;9.91;100.00;96845.41;4953673;28;20523;-55
2022/09/19 11:48:13;;;;;;;0.93;0.57;;;;;;;9.98;100.00;96862.16;4953669;28;20050;-54
2022/09/19 11:50:59;;;;;;;5.82;0.60;;;;;;;10.06;100.00;96841.63;4970184;28;20043;-52
2022/09/19 11:53:37;;;;;;;0.65;0.60;;;;;;;10.12;100.00;96840.31;4970251;28;20046;-53
2022/09/19 11:56:37;;;;;;;0.40;0.35;;;;;;;10.09;100.00;96848.34;4937073;28;20048;-54
2022/09/19 11:59:04;;;;;;;6.70;1.00;;;;;;;10.02;100.00;96853.19;4966999;28;20528;-52
2022/09/19 12:01:53;;;;;;;1.85;0.52;;;;;;;10.01;100.00;96851.53;4953369;28;20060;-55
2022/09/19 12:05:01;;;;;;;2.20;0.80;;;;;;;10.03;100.00;96854.84;4921281;28;20043;-49
2022/09/19 12:07:42;;;;;;;0.45;0.40;;;;;;;9.98;100.00;96863.94;4939703;28;20112;-51
2022/09/19 12:10:18;;;;;;;0.93;0.53;;;;;;;9.99;100.00;96863.81;4967729;28;20490;-52
2022/09/19 12:12:54;;;;;;;0.95;0.47;;;;;;;9.98;100.00;96858.75;4951065;28;20290;-50
2022/09/19 12:15:38;;;;;;;3.03;0.40;;;;;;;9.99;100.00;96847.41;4950998;28;20259;-50
2022/09/19 12:18:10;;;;;;;1.85;0.30;;;;;;;10.07;100.00;96856.25;4946817;28;20047;-49
2022/09/19 12:20:42;;;;;;;1.05;0.50;;;;;;;10.02;100.00;96865.34;4950734;28;20510;-54